Cringleford, United Kingdom
Current Conditions -  °F | °C
As of 11:50 PM on Friday 19 Dec 2014 (Local Time) from EGSH Reporting Station
Few Clouds Few Clouds  
Wind Chill: 32°   Ceiling: Unl
Heat Index: 41°   Visibility: 6mi
Dew Point: 37°   Wind: 18mph
Humidity: 87%   Direction: 240°WSW
Pressure: 30.06"   Gusts: NA
Location:  52.6°N, 1.24°E
Report Text: EGSH 192350Z AUTO 24016KT 9999 FEW029/// 05/03 Q1018
Loading
Personal Weather Stations






























Interactive Weather Map New forecast layout! Learn more

10-Day Weather Forecast

Advertisements
Track Severe Weather on mobile